createdAt,value
2022-12-16T00:01:14.167Z,13.02
2022-12-16T00:03:44.245Z,14.40
2022-12-16T00:06:12.633Z,13.20
2022-12-16T00:08:41.163Z,10.10
2022-12-16T00:11:10.193Z,11.73
2022-12-16T00:13:41.322Z,9.75
2022-12-16T00:16:10.758Z,10.27
2022-12-16T00:18:40.391Z,13.83
2022-12-16T00:21:09.062Z,8.13
2022-12-16T00:23:39.392Z,9.35
2022-12-16T00:26:07.772Z,8.10
2022-12-16T00:28:36.490Z,7.23
2022-12-16T00:31:06.441Z,9.82
2022-12-16T00:33:35.270Z,6.40
2022-12-16T00:36:04.076Z,6.55
2022-12-16T00:38:32.329Z,7.40
2022-12-16T00:41:00.808Z,9.50
2022-12-16T00:43:29.300Z,6.57
2022-12-16T00:45:57.722Z,7.07
2022-12-16T00:48:27.374Z,6.20
2022-12-16T00:50:56.100Z,6.60
2022-12-16T00:53:25.090Z,5.38
2022-12-16T00:55:53.663Z,5.70
2022-12-16T00:58:22.015Z,5.30
2022-12-16T01:00:50.346Z,6.25
2022-12-16T01:03:22.065Z,5.32
2022-12-16T01:05:51.941Z,4.90
2022-12-16T01:08:20.978Z,5.72
2022-12-16T01:10:52.403Z,6.25
2022-12-16T01:13:21.371Z,5.35
2022-12-16T01:15:49.875Z,3.75
2022-12-16T01:18:19.238Z,5.18
2022-12-16T01:20:47.544Z,5.10
2022-12-16T01:23:17.240Z,4.10
2022-12-16T01:25:45.616Z,6.00
2022-12-16T01:28:13.836Z,6.25
2022-12-16T01:30:42.080Z,4.72
2022-12-16T01:33:11.096Z,4.80
2022-12-16T01:35:55.288Z,4.65
2022-12-16T01:38:25.776Z,5.30
2022-12-16T01:40:55.042Z,3.63
2022-12-16T01:43:25.723Z,3.00
2022-12-16T01:45:54.590Z,2.70
2022-12-16T01:48:27.860Z,3.70
2022-12-16T01:50:58.414Z,2.77
2022-12-16T01:53:28.187Z,3.45
2022-12-16T01:55:57.403Z,3.28
2022-12-16T01:58:27.697Z,3.22
2022-12-16T02:00:56.042Z,5.07
2022-12-16T02:03:24.453Z,3.17
2022-12-16T02:05:53.687Z,2.50
2022-12-16T02:08:22.653Z,4.32
2022-12-16T02:11:09.692Z,3.90
2022-12-16T02:13:47.716Z,2.47
2022-12-16T02:16:19.353Z,2.17
2022-12-16T02:18:54.402Z,2.30
2022-12-16T02:21:33.499Z,2.17
2022-12-16T02:24:19.412Z,4.28
2022-12-16T02:27:05.717Z,4.38
2022-12-16T02:29:41.699Z,6.43
2022-12-16T02:32:15.339Z,3.60
2022-12-16T02:34:46.615Z,4.80
2022-12-16T02:37:18.407Z,2.38
2022-12-16T02:39:50.624Z,3.97
2022-12-16T02:42:23.465Z,3.40
2022-12-16T02:44:55.256Z,3.83
2022-12-16T02:47:25.411Z,2.63
2022-12-16T02:49:55.085Z,2.83
2022-12-16T02:52:24.355Z,3.70
2022-12-16T02:54:54.595Z,2.80
2022-12-16T02:57:37.770Z,3.95
2022-12-16T03:00:08.839Z,4.10
2022-12-16T03:02:42.615Z,3.07
2022-12-16T03:05:13.304Z,4.10
2022-12-16T03:07:42.440Z,4.00
2022-12-16T03:10:12.148Z,2.33
2022-12-16T03:12:42.210Z,1.88
2022-12-16T03:15:11.332Z,3.35
2022-12-16T03:17:41.495Z,5.38
2022-12-16T03:20:12.124Z,5.03
2022-12-16T03:22:43.343Z,5.85
2022-12-16T03:25:11.778Z,3.33
2022-12-16T03:27:43.676Z,3.63
2022-12-16T03:30:15.089Z,2.50
2022-12-16T03:32:48.671Z,5.23
2022-12-16T03:35:19.852Z,3.38
2022-12-16T03:37:49.906Z,8.70
2022-12-16T03:40:18.388Z,3.85
2022-12-16T03:42:46.667Z,4.60
2022-12-16T03:45:18.386Z,3.38
2022-12-16T03:47:51.799Z,5.60
2022-12-16T03:50:21.387Z,5.10
2022-12-16T03:52:49.630Z,3.22
2022-12-16T03:55:17.924Z,3.07
2022-12-16T03:57:46.246Z,3.70
2022-12-16T04:00:15.126Z,3.87
2022-12-16T04:02:43.733Z,3.93
2022-12-16T04:05:13.525Z,4.20
2022-12-16T04:07:41.816Z,4.05
2022-12-16T04:10:10.409Z,3.70
2022-12-16T04:12:56.427Z,4.70
2022-12-16T04:15:42.373Z,2.70
2022-12-16T04:18:29.497Z,4.90
2022-12-16T04:21:16.725Z,2.28
2022-12-16T04:24:05.654Z,6.47
2022-12-16T04:26:54.779Z,3.50
2022-12-16T04:29:23.077Z,3.72
2022-12-16T04:31:51.834Z,2.75
2022-12-16T04:34:29.487Z,2.95
2022-12-16T04:37:17.919Z,5.55
2022-12-16T04:40:04.290Z,4.13
2022-12-16T04:42:50.047Z,4.18
2022-12-16T04:45:36.189Z,3.72
2022-12-16T04:48:22.298Z,5.95
2022-12-16T04:51:08.274Z,3.58
2022-12-16T04:53:55.676Z,3.30
2022-12-16T04:56:41.763Z,5.43
2022-12-16T04:59:27.827Z,1.98
2022-12-16T05:02:14.143Z,3.45
2022-12-16T05:05:00.051Z,3.20
2022-12-16T05:07:46.092Z,2.70
2022-12-16T05:10:33.295Z,4.30
2022-12-16T05:13:19.327Z,3.40
2022-12-16T05:16:05.440Z,3.85
2022-12-16T05:18:51.313Z,1.90
2022-12-16T05:21:37.261Z,2.90
2022-12-16T05:24:31.571Z,5.47
2022-12-16T05:27:18.562Z,2.97
2022-12-16T05:30:06.880Z,1.70
2022-12-16T05:32:52.947Z,1.90
2022-12-16T05:35:41.411Z,2.55
2022-12-16T05:38:27.380Z,2.35
2022-12-16T05:41:15.752Z,3.08
2022-12-16T05:44:02.811Z,3.60
2022-12-16T05:46:48.995Z,2.30
2022-12-16T05:49:34.732Z,2.63
2022-12-16T05:52:20.729Z,4.30
2022-12-16T05:55:06.978Z,4.50
2022-12-16T05:57:53.158Z,5.10
2022-12-16T06:00:40.653Z,5.07
2022-12-16T06:03:26.898Z,3.22
2022-12-16T06:06:12.803Z,2.90
2022-12-16T06:08:58.731Z,5.32
2022-12-16T06:11:44.699Z,3.67
2022-12-16T06:14:30.683Z,3.50
2022-12-16T06:17:18.096Z,4.00
2022-12-16T06:20:04.063Z,2.17
2022-12-16T06:22:50.072Z,5.82
2022-12-16T06:25:36.150Z,3.90
2022-12-16T06:28:22.176Z,4.75
2022-12-16T06:31:08.226Z,4.60
2022-12-16T06:33:55.781Z,3.63
2022-12-16T06:36:42.057Z,3.87
2022-12-16T06:39:28.075Z,3.95
2022-12-16T06:42:14.364Z,3.50
2022-12-16T06:45:00.366Z,4.60
2022-12-16T06:47:46.430Z,4.18
2022-12-16T06:50:32.917Z,4.25
2022-12-16T06:53:18.944Z,4.47
2022-12-16T06:56:04.731Z,7.70
2022-12-16T06:58:50.949Z,4.93
2022-12-16T07:01:37.007Z,6.03
2022-12-16T07:04:22.959Z,5.68
2022-12-16T07:07:10.187Z,4.80
2022-12-16T07:09:55.485Z,5.30
2022-12-16T07:12:41.151Z,5.10
2022-12-16T07:15:27.545Z,7.10
2022-12-16T07:18:13.129Z,9.10
2022-12-16T07:20:58.801Z,6.90
2022-12-16T07:23:45.279Z,8.18
2022-12-16T07:26:30.918Z,8.93
2022-12-16T07:29:18.690Z,8.55
2022-12-16T07:32:04.361Z,7.38
2022-12-16T07:34:50.415Z,9.68
2022-12-16T07:37:36.063Z,8.35
2022-12-16T07:40:23.681Z,7.78
2022-12-16T07:43:09.263Z,7.10
2022-12-16T07:45:54.737Z,5.78
2022-12-16T07:48:40.739Z,7.20
2022-12-16T07:51:26.464Z,6.45
2022-12-16T07:54:12.073Z,6.85
2022-12-16T07:56:58.876Z,9.95
2022-12-16T07:59:44.474Z,11.40
2022-12-16T08:02:30.180Z,8.77
2022-12-16T08:05:15.945Z,10.85
2022-12-16T08:08:01.229Z,8.25
2022-12-16T08:10:46.977Z,8.52
2022-12-16T08:13:34.323Z,6.57
2022-12-16T08:16:19.977Z,5.40
2022-12-16T08:19:10.759Z,9.25
2022-12-16T08:21:56.558Z,7.90
2022-12-16T08:24:42.096Z,7.38
2022-12-16T08:27:27.620Z,6.80
2022-12-16T08:30:14.449Z,7.28
2022-12-16T08:33:05.164Z,8.93
2022-12-16T08:35:59.154Z,10.25
2022-12-16T08:38:44.563Z,10.65
2022-12-16T08:41:30.174Z,8.70
2022-12-16T08:44:11.972Z,10.45
2022-12-16T08:46:58.733Z,8.98
2022-12-16T08:49:43.820Z,7.53
2022-12-16T08:52:29.506Z,8.83
2022-12-16T08:55:15.108Z,8.35
2022-12-16T08:58:00.774Z,8.23
2022-12-16T09:00:46.294Z,10.05
2022-12-16T09:03:33.370Z,9.65
2022-12-16T09:06:18.856Z,8.88
2022-12-16T09:09:04.304Z,8.63
2022-12-16T09:11:49.887Z,8.43
2022-12-16T09:14:35.564Z,8.60
2022-12-16T09:17:20.853Z,8.45
2022-12-16T09:20:07.445Z,9.35
2022-12-16T09:23:07.632Z,9.30
2022-12-16T09:25:53.166Z,8.30
2022-12-16T09:28:41.169Z,9.55
2022-12-16T09:31:26.829Z,9.05
2022-12-16T09:34:12.231Z,12.32
2022-12-16T09:36:58.963Z,7.80
2022-12-16T09:39:44.553Z,9.38
2022-12-16T09:42:38.967Z,8.57
2022-12-16T09:45:35.032Z,8.02
2022-12-16T09:48:25.224Z,9.80
2022-12-16T09:51:14.832Z,7.32
2022-12-16T09:54:03.040Z,11.20
2022-12-16T09:56:51.498Z,8.97
2022-12-16T09:59:44.334Z,6.40
2022-12-16T10:02:31.379Z,8.73
2022-12-16T10:05:16.983Z,10.00
2022-12-16T10:08:06.992Z,9.40
2022-12-16T10:11:02.967Z,7.47
2022-12-16T10:13:59.051Z,9.25
2022-12-16T10:16:52.042Z,4.80
2022-12-16T10:19:52.312Z,9.30
2022-12-16T10:22:44.695Z,8.90
2022-12-16T10:25:36.293Z,7.63
2022-12-16T10:28:31.151Z,6.20
2022-12-16T10:31:16.774Z,7.00
2022-12-16T10:34:04.215Z,6.45
2022-12-16T10:36:50.133Z,8.25
2022-12-16T10:39:45.165Z,8.10
2022-12-16T10:42:38.536Z,6.45
2022-12-16T10:45:35.239Z,10.93
2022-12-16T10:48:20.860Z,7.28
2022-12-16T10:51:06.479Z,8.75
2022-12-16T10:53:53.932Z,6.07
2022-12-16T10:56:55.828Z,6.83
2022-12-16T10:59:54.311Z,6.50
2022-12-16T11:02:43.948Z,8.20
2022-12-16T11:05:49.813Z,7.72
2022-12-16T11:08:47.815Z,5.25
2022-12-16T11:11:40.852Z,9.38
2022-12-16T11:14:59.491Z,9.80
2022-12-16T11:17:51.534Z,7.82
2022-12-16T11:20:39.006Z,6.60
2022-12-16T11:23:43.393Z,7.40
2022-12-16T11:26:36.813Z,5.40
2022-12-16T11:29:30.775Z,8.73
2022-12-16T11:32:21.253Z,5.72
2022-12-16T11:35:12.335Z,7.95
2022-12-16T11:38:01.451Z,8.50
2022-12-16T11:40:48.735Z,8.25
2022-12-16T11:43:37.043Z,10.52
2022-12-16T11:46:27.026Z,7.32
2022-12-16T11:49:21.949Z,7.05
2022-12-16T11:52:35.911Z,8.60
2022-12-16T11:55:48.186Z,9.23
2022-12-16T11:58:39.040Z,5.93
2022-12-16T12:01:31.763Z,8.57
2022-12-16T12:04:17.571Z,9.40
2022-12-16T12:07:20.159Z,7.00
2022-12-16T12:10:12.685Z,6.10
2022-12-16T12:13:04.351Z,10.85
2022-12-16T12:15:56.899Z,6.32
2022-12-16T12:18:51.425Z,7.50
2022-12-16T12:21:42.931Z,7.60
2022-12-16T12:24:42.452Z,8.00
2022-12-16T12:27:37.106Z,9.47
2022-12-16T12:30:25.037Z,7.93
2022-12-16T12:33:26.368Z,8.30
2022-12-16T12:36:20.081Z,10.93
2022-12-16T12:39:18.762Z,7.70
2022-12-16T12:42:26.191Z,5.40
2022-12-16T12:45:24.928Z,10.38
2022-12-16T12:48:19.769Z,9.88
2022-12-16T12:51:13.950Z,6.65
2022-12-16T12:54:07.625Z,6.37
2022-12-16T12:57:06.395Z,5.88
2022-12-16T13:00:04.805Z,6.95
2022-12-16T13:03:01.107Z,7.45
2022-12-16T13:05:50.983Z,5.30
2022-12-16T13:09:29.114Z,9.40
2022-12-16T13:12:43.836Z,5.28
2022-12-16T13:15:39.142Z,7.37
2022-12-16T13:18:52.287Z,8.13
2022-12-16T13:22:05.668Z,6.78
2022-12-16T13:25:07.701Z,5.75
2022-12-16T13:28:13.975Z,5.57
2022-12-16T13:31:25.232Z,7.40
2022-12-16T13:34:11.908Z,7.75
2022-12-16T13:36:58.424Z,6.05
2022-12-16T13:39:45.844Z,8.23
2022-12-16T13:42:51.188Z,7.75
2022-12-16T13:45:48.944Z,6.68
2022-12-16T13:49:00.134Z,5.05
2022-12-16T13:52:18.908Z,6.82
2022-12-16T13:55:10.392Z,6.65
2022-12-16T13:58:00.877Z,6.63
2022-12-16T14:00:47.504Z,6.47
2022-12-16T14:03:38.842Z,5.32
2022-12-16T14:06:34.869Z,6.88
2022-12-16T14:09:22.985Z,7.35
2022-12-16T14:12:15.696Z,5.43
2022-12-16T14:15:06.798Z,6.97
2022-12-16T14:17:57.601Z,6.60
2022-12-16T14:20:48.002Z,9.48
2022-12-16T14:23:56.561Z,5.90
2022-12-16T14:26:42.908Z,6.13
2022-12-16T14:29:39.112Z,8.30
2022-12-16T14:32:38.216Z,5.00
2022-12-16T14:35:31.133Z,6.65
2022-12-16T14:38:17.269Z,4.88
2022-12-16T14:41:10.121Z,6.30
2022-12-16T14:43:55.729Z,4.72
2022-12-16T14:46:46.996Z,5.70
2022-12-16T14:49:40.071Z,6.80
2022-12-16T14:52:42.026Z,6.60
2022-12-16T14:55:34.151Z,7.10
2022-12-16T14:58:28.537Z,5.72
2022-12-16T15:01:17.898Z,5.40
2022-12-16T15:04:05.456Z,6.30
2022-12-16T15:06:58.622Z,5.70
2022-12-16T15:09:48.077Z,6.28
2022-12-16T15:12:36.246Z,6.30
2022-12-16T15:15:27.801Z,6.07
2022-12-16T15:18:16.001Z,7.95
2022-12-16T15:21:07.734Z,7.15
2022-12-16T15:23:53.814Z,7.90
2022-12-16T15:26:41.693Z,5.93
2022-12-16T15:29:51.487Z,7.03
2022-12-16T15:32:55.017Z,8.40
2022-12-16T15:35:46.143Z,7.30
2022-12-16T15:38:37.968Z,6.23
2022-12-16T15:41:24.456Z,7.60
2022-12-16T15:44:10.543Z,8.27
2022-12-16T15:46:56.653Z,7.38
2022-12-16T15:49:51.024Z,5.93
2022-12-16T15:52:51.829Z,8.07
2022-12-16T15:55:46.358Z,6.97
2022-12-16T15:58:34.272Z,8.32
2022-12-16T16:01:20.258Z,9.68
2022-12-16T16:04:10.919Z,8.98
2022-12-16T16:07:03.292Z,9.95
2022-12-16T16:09:50.766Z,9.30
2022-12-16T16:12:38.377Z,9.25
2022-12-16T16:15:26.579Z,10.82
2022-12-16T16:18:15.453Z,12.30
2022-12-16T16:21:01.455Z,9.93
2022-12-16T16:23:48.591Z,10.10
2022-12-16T16:26:37.092Z,11.88
2022-12-16T16:29:23.673Z,10.75
2022-12-16T16:32:09.316Z,11.52
2022-12-16T16:34:54.962Z,11.05
2022-12-16T16:37:40.919Z,11.95
2022-12-16T16:40:37.089Z,12.02
2022-12-16T16:43:22.552Z,12.13
2022-12-16T16:46:12.064Z,11.73
2022-12-16T16:48:57.853Z,10.43
2022-12-16T16:51:43.414Z,11.93
2022-12-16T16:54:29.058Z,13.32
2022-12-16T16:57:15.887Z,11.18
2022-12-16T17:00:01.419Z,13.02
2022-12-16T17:02:46.915Z,12.50
2022-12-16T17:05:44.489Z,10.60
2022-12-16T17:08:29.746Z,11.68
2022-12-16T17:11:26.801Z,10.37
2022-12-16T17:14:13.880Z,11.35
2022-12-16T17:17:02.514Z,12.93
2022-12-16T17:19:47.981Z,13.32
2022-12-16T17:22:33.551Z,12.65
2022-12-16T17:25:19.097Z,13.27
2022-12-16T17:28:04.652Z,14.35
2022-12-16T17:30:51.871Z,15.40
2022-12-16T17:33:38.659Z,16.63
2022-12-16T17:36:30.055Z,16.20
2022-12-16T17:39:17.168Z,17.20
2022-12-16T17:42:03.275Z,16.17
2022-12-16T17:44:48.858Z,16.75
2022-12-16T17:47:35.908Z,17.20
2022-12-16T17:50:24.373Z,18.80
2022-12-16T17:53:13.064Z,21.52
2022-12-16T17:55:58.621Z,23.02
2022-12-16T17:58:51.226Z,20.67
2022-12-16T18:01:37.468Z,24.13
2022-12-16T18:04:25.018Z,21.25
2022-12-16T18:07:10.573Z,23.45
2022-12-16T18:09:56.051Z,25.20
2022-12-16T18:12:42.091Z,23.38
2022-12-16T18:15:28.604Z,22.35
2022-12-16T18:18:14.050Z,24.50
2022-12-16T18:21:00.781Z,23.92
2022-12-16T18:23:48.212Z,25.80
2022-12-16T18:26:33.945Z,25.17
2022-12-16T18:29:19.446Z,26.05
2022-12-16T18:32:17.971Z,28.30
2022-12-16T18:35:03.392Z,25.55
2022-12-16T18:38:01.617Z,22.98
2022-12-16T18:40:47.229Z,24.13
2022-12-16T18:43:33.284Z,25.88
2022-12-16T18:46:18.999Z,27.00
2022-12-16T18:49:04.918Z,25.92
2022-12-16T18:51:58.885Z,26.52
2022-12-16T18:54:45.553Z,26.53
2022-12-16T18:57:33.963Z,27.35
2022-12-16T19:00:24.748Z,26.23
2022-12-16T19:03:10.090Z,27.42
2022-12-16T19:05:51.951Z,28.77
2022-12-16T19:08:37.588Z,31.20
2022-12-16T19:11:24.709Z,32.23
2022-12-16T19:14:10.346Z,28.50
2022-12-16T19:16:56.064Z,30.50
2022-12-16T19:19:41.640Z,29.58
2022-12-16T19:22:27.133Z,30.17
2022-12-16T19:25:12.845Z,27.77
2022-12-16T19:27:59.642Z,30.83
2022-12-16T19:30:45.129Z,30.88
2022-12-16T19:33:30.744Z,32.65
2022-12-16T19:36:30.818Z,35.40
2022-12-16T19:39:16.192Z,28.08
2022-12-16T19:42:01.865Z,34.93
2022-12-16T19:44:48.744Z,33.10
2022-12-16T19:47:34.041Z,32.10
2022-12-16T19:50:19.578Z,35.65
2022-12-16T19:53:01.457Z,37.45
2022-12-16T19:55:46.933Z,32.60
2022-12-16T19:58:38.045Z,35.23
2022-12-16T20:01:27.981Z,38.53
2022-12-16T20:04:13.768Z,39.38
2022-12-16T20:06:55.967Z,37.83
2022-12-16T20:09:44.944Z,41.33
2022-12-16T20:12:31.047Z,46.13
2022-12-16T20:15:16.619Z,46.33
2022-12-16T20:18:03.342Z,45.43
2022-12-16T20:20:48.897Z,45.27
2022-12-16T20:23:34.523Z,48.33
2022-12-16T20:26:20.191Z,48.75
2022-12-16T20:29:05.638Z,45.78
2022-12-16T20:31:51.908Z,47.47
2022-12-16T20:34:38.526Z,44.90
2022-12-16T20:37:24.091Z,44.97
2022-12-16T20:40:09.645Z,44.47
2022-12-16T20:42:56.343Z,47.60
2022-12-16T20:45:41.931Z,44.03
2022-12-16T20:48:31.521Z,43.85
2022-12-16T20:51:26.187Z,41.65
2022-12-16T20:54:12.664Z,42.00
2022-12-16T20:56:58.375Z,40.33
2022-12-16T20:59:43.849Z,40.70
2022-12-16T21:02:33.635Z,43.20
2022-12-16T21:05:20.622Z,38.90
2022-12-16T21:08:07.478Z,38.03
2022-12-16T21:10:56.273Z,36.70
2022-12-16T21:13:41.753Z,35.17
2022-12-16T21:16:27.412Z,33.88
2022-12-16T21:19:13.085Z,39.17
2022-12-16T21:21:58.577Z,37.45
2022-12-16T21:24:45.113Z,37.33
2022-12-16T21:27:30.711Z,35.13
2022-12-16T21:30:16.281Z,38.10
2022-12-16T21:33:01.731Z,33.60
2022-12-16T21:35:47.288Z,34.05
2022-12-16T21:38:32.824Z,31.40
2022-12-16T21:41:19.716Z,32.22
2022-12-16T21:44:05.165Z,29.88
2022-12-16T21:46:51.902Z,29.90
2022-12-16T21:49:37.299Z,30.75
2022-12-16T21:52:22.938Z,28.30
2022-12-16T21:55:08.684Z,29.13
2022-12-16T21:57:56.575Z,29.08
2022-12-16T22:00:42.029Z,29.40
2022-12-16T22:03:27.683Z,30.70
2022-12-16T22:06:16.944Z,26.73
2022-12-16T22:09:02.671Z,26.17
2022-12-16T22:11:48.265Z,27.67
2022-12-16T22:14:35.092Z,31.00
2022-12-16T22:17:20.759Z,32.67
2022-12-16T22:20:06.538Z,34.38
2022-12-16T22:22:52.076Z,34.47
2022-12-16T22:25:37.683Z,39.88
2022-12-16T22:28:25.058Z,39.55
2022-12-16T22:31:16.288Z,42.00
2022-12-16T22:34:01.966Z,43.72
2022-12-16T22:36:48.743Z,46.50
2022-12-16T22:39:34.365Z,45.20
2022-12-16T22:42:20.025Z,49.38
2022-12-16T22:45:05.600Z,57.17
2022-12-16T22:47:52.400Z,55.10
2022-12-16T22:50:40.547Z,54.80
2022-12-16T22:53:26.091Z,56.60
2022-12-16T22:56:12.529Z,54.45
2022-12-16T22:58:58.152Z,54.40
2022-12-16T23:01:44.245Z,54.65
2022-12-16T23:04:31.318Z,55.30
2022-12-16T23:07:16.936Z,54.30
2022-12-16T23:10:02.407Z,53.43
2022-12-16T23:12:48.256Z,47.38
2022-12-16T23:15:33.960Z,50.50
2022-12-16T23:18:19.819Z,51.97
2022-12-16T23:21:07.788Z,51.35
2022-12-16T23:23:53.193Z,45.55
2022-12-16T23:26:39.636Z,49.05
2022-12-16T23:29:25.424Z,49.25
2022-12-16T23:32:10.801Z,44.25
2022-12-16T23:34:59.693Z,46.30
2022-12-16T23:37:46.330Z,44.10
2022-12-16T23:40:31.817Z,45.92
2022-12-16T23:43:17.391Z,45.95
2022-12-16T23:46:03.405Z,44.60
2022-12-16T23:48:48.716Z,43.17
2022-12-16T23:51:34.337Z,44.40
2022-12-16T23:54:20.904Z,42.20
2022-12-16T23:57:06.456Z,46.08
2022-12-16T23:59:48.295Z,42.78
